Time;durP1;ratioP1;P1;durP2;ratioP2;P2;SDS_P1;SDS_P2;PMS_P1;PMS_P2;Temp;Humidity;BMP_temperature;BMP_pressure;BME280_temperature;BME280_humidity;BME280_pressure;Samples;Min_cycle;Max_cycle;Signal;HPM_P1;HPM_P2
2023/01/23 00:00:51;;;;;;;41.97;26.60;;;;;;;;;;5073864;28;20217;-70
2023/01/23 00:03:17;;;;;;;40.80;27.93;;;;;;;;;;5074259;28;20204;-70
2023/01/23 00:05:43;;;;;;;47.63;28.30;;;;;;;;;;5073964;28;20416;-70
2023/01/23 00:08:09;;;;;;;43.33;26.33;;;;;;;;;;5075283;28;20959;-70
2023/01/23 00:10:37;;;;;;;43.10;25.77;;;;;;;;;;5075190;28;20197;-70
2023/01/23 00:13:03;;;;;;;44.27;28.73;;;;;;;;;;5073632;28;20469;-70
2023/01/23 00:15:28;;;;;;;43.17;25.07;;;;;;;;;;5073741;28;20494;-70
2023/01/23 00:17:54;;;;;;;46.27;27.17;;;;;;;;;;5073623;28;20186;-70
2023/01/23 00:20:20;;;;;;;41.40;26.47;;;;;;;;;;5073550;28;20288;-70
2023/01/23 00:22:46;;;;;;;42.93;25.77;;;;;;;;;;5073513;28;20273;-70
2023/01/23 00:25:12;;;;;;;42.97;27.23;;;;;;;;;;5074766;28;20181;-70
2023/01/23 00:27:38;;;;;;;43.83;26.23;;;;;;;;;;5074765;28;20650;-70
2023/01/23 00:30:05;;;;;;;46.13;25.83;;;;;;;;;;5073182;28;20194;-70
2023/01/23 00:32:31;;;;;;;42.40;26.93;;;;;;;;;;5072983;28;20181;-69
2023/01/23 00:34:56;;;;;;;47.47;28.13;;;;;;;;;;5073339;28;20439;-70
2023/01/23 00:37:22;;;;;;;46.47;27.93;;;;;;;;;;5074679;28;20557;-70
2023/01/23 00:39:49;;;;;;;40.60;23.13;;;;;;;;;;5074376;28;20690;-70
2023/01/23 00:42:15;;;;;;;44.40;27.40;;;;;;;;;;5073424;28;20177;-70
2023/01/23 00:44:41;;;;;;;41.43;25.47;;;;;;;;;;5072966;28;20794;-70
2023/01/23 00:47:07;;;;;;;45.00;26.00;;;;;;;;;;5074333;28;20451;-70
2023/01/23 00:49:33;;;;;;;44.23;28.17;;;;;;;;;;5072970;28;20204;-70
2023/01/23 00:51:59;;;;;;;43.83;27.23;;;;;;;;;;5072803;28;20412;-70
2023/01/23 00:54:25;;;;;;;39.93;26.07;;;;;;;;;;5074421;28;20180;-70
2023/01/23 00:56:52;;;;;;;43.27;26.43;;;;;;;;;;5074150;28;20213;-70
2023/01/23 00:59:18;;;;;;;37.43;25.27;;;;;;;;;;5073877;28;20210;-70
2023/01/23 01:01:44;;;;;;;39.27;27.27;;;;;;;;;;5074419;28;20838;-70
2023/01/23 01:04:09;;;;;;;37.30;23.67;;;;;;;;;;5074074;28;20554;-70
2023/01/23 01:06:35;;;;;;;47.73;27.10;;;;;;;;;;5074488;28;20209;-70
2023/01/23 01:09:01;;;;;;;38.00;24.23;;;;;;;;;;5073827;28;20576;-70
2023/01/23 01:11:27;;;;;;;39.53;25.27;;;;;;;;;;5074074;28;20240;-70
2023/01/23 01:13:53;;;;;;;34.37;25.70;;;;;;;;;;5072799;28;20189;-70
2023/01/23 01:16:19;;;;;;;39.83;26.27;;;;;;;;;;5074218;28;20181;-70
2023/01/23 01:18:45;;;;;;;40.67;26.23;;;;;;;;;;5072763;28;20553;-70
2023/01/23 01:21:17;;;;;;;43.53;26.43;;;;;;;;;;5073819;28;20183;-70
2023/01/23 01:23:43;;;;;;;41.63;25.40;;;;;;;;;;5072617;28;20174;-70
2023/01/23 01:26:09;;;;;;;39.90;25.57;;;;;;;;;;5074260;28;20474;-70
2023/01/23 01:28:36;;;;;;;35.10;24.40;;;;;;;;;;5073969;28;20200;-70
2023/01/23 01:31:04;;;;;;;38.57;24.00;;;;;;;;;;5072413;28;20197;-70
2023/01/23 01:33:30;;;;;;;36.43;23.33;;;;;;;;;;5072705;28;20785;-70
2023/01/23 01:35:56;;;;;;;36.17;24.27;;;;;;;;;;5072264;28;20427;-68
2023/01/23 01:38:25;;;;;;;33.03;23.30;;;;;;;;;;5074036;28;20404;-70
2023/01/23 01:40:51;;;;;;;35.93;24.53;;;;;;;;;;5072085;28;20194;-70
2023/01/23 01:43:22;;;;;;;32.77;24.27;;;;;;;;;;5072531;28;20420;-70
2023/01/23 01:46:06;;;;;;;36.67;24.37;;;;;;;;;;5073735;28;20295;-70
2023/01/23 01:48:42;;;;;;;30.40;20.73;;;;;;;;;;5071996;28;20448;-70
2023/01/23 01:51:17;;;;;;;35.97;22.90;;;;;;;;;;5072505;28;20426;-70
2023/01/23 01:53:45;;;;;;;29.37;21.73;;;;;;;;;;5076942;28;20177;-70
2023/01/23 01:56:12;;;;;;;31.27;21.33;;;;;;;;;;5077298;28;20178;-70
2023/01/23 01:58:38;;;;;;;29.10;21.30;;;;;;;;;;5077249;28;20438;-70
2023/01/23 02:01:04;;;;;;;28.97;21.63;;;;;;;;;;5077221;28;20423;-70
2023/01/23 02:03:30;;;;;;;30.37;21.37;;;;;;;;;;5075934;28;20471;-70
2023/01/23 02:05:56;;;;;;;29.20;22.43;;;;;;;;;;5077531;28;20235;-70
2023/01/23 02:08:26;;;;;;;31.53;21.90;;;;;;;;;;5077269;28;20205;-70
2023/01/23 02:10:53;;;;;;;29.80;21.63;;;;;;;;;;5077238;28;20428;-70
2023/01/23 02:13:32;;;;;;;29.60;21.77;;;;;;;;;;5077388;28;20483;-70
2023/01/23 02:16:00;;;;;;;33.07;21.23;;;;;;;;;;5076968;28;20400;-70
2023/01/23 02:18:27;;;;;;;30.67;22.63;;;;;;;;;;5077454;28;20412;-70
2023/01/23 02:20:54;;;;;;;34.13;23.50;;;;;;;;;;5076967;28;20440;-70
2023/01/23 02:23:35;;;;;;;33.90;20.80;;;;;;;;;;5076960;28;20415;-70
2023/01/23 02:26:04;;;;;;;32.57;23.90;;;;;;;;;;5076873;28;20746;-70
2023/01/23 02:28:45;;;;;;;37.27;24.07;;;;;;;;;;5076977;28;20940;-70
2023/01/23 02:31:11;;;;;;;32.47;21.97;;;;;;;;;;5076448;28;20174;-70
2023/01/23 02:33:37;;;;;;;30.20;20.13;;;;;;;;;;5076633;28;20612;-70
2023/01/23 02:36:07;;;;;;;32.30;22.50;;;;;;;;;;5076484;28;20412;-70
2023/01/23 02:38:36;;;;;;;23.97;17.57;;;;;;;;;;5076868;28;20211;-70
2023/01/23 02:41:03;;;;;;;31.10;22.03;;;;;;;;;;5075215;28;20440;-70
2023/01/23 02:43:33;;;;;;;33.83;22.87;;;;;;;;;;5076916;28;20412;-70
2023/01/23 02:46:07;;;;;;;31.63;23.00;;;;;;;;;;5076408;28;20804;-70
2023/01/23 02:48:33;;;;;;;29.07;20.23;;;;;;;;;;5074943;28;20482;-70
2023/01/23 02:50:59;;;;;;;31.07;20.17;;;;;;;;;;5076279;28;20440;-70
2023/01/23 02:53:26;;;;;;;25.90;20.10;;;;;;;;;;5074974;28;20474;-70
2023/01/23 02:55:52;;;;;;;25.70;19.57;;;;;;;;;;5074931;28;20182;-70
2023/01/23 03:01:03;;;;;;;28.93;22.40;;;;;;;;;;5076439;28;20266;-70
2023/01/23 03:03:29;;;;;;;27.33;20.37;;;;;;;;;;5076322;28;20412;-71
2023/01/23 03:05:58;;;;;;;28.60;21.60;;;;;;;;;;5076701;28;20177;-69
2023/01/23 03:08:33;;;;;;;27.20;21.20;;;;;;;;;;5075118;28;20228;-70
2023/01/23 03:10:59;;;;;;;35.53;23.80;;;;;;;;;;5076784;28;20193;-70
2023/01/23 03:13:25;;;;;;;31.43;22.47;;;;;;;;;;5076775;28;20181;-70
2023/01/23 03:15:51;;;;;;;25.50;19.93;;;;;;;;;;5076339;28;20408;-70
2023/01/23 03:18:18;;;;;;;27.87;21.03;;;;;;;;;;5074902;28;20324;-70
2023/01/23 03:20:44;;;;;;;25.27;19.17;;;;;;;;;;5076189;28;20202;-70
2023/01/23 03:23:10;;;;;;;25.43;18.97;;;;;;;;;;5074691;28;20258;-70
2023/01/23 03:25:37;;;;;;;28.87;21.77;;;;;;;;;;5075714;28;20963;-70
2023/01/23 03:30:11;;;;;;;30.80;20.37;;;;;;;;;;5076051;28;20447;-70
2023/01/23 03:30:49;;;;;;;28.30;21.97;;;;;;;;;;5075624;28;20201;-70
2023/01/23 03:33:15;;;;;;;28.77;21.43;;;;;;;;;;5075863;28;20446;-70
2023/01/23 03:35:41;;;;;;;29.83;21.40;;;;;;;;;;5074350;28;20173;-70
2023/01/23 03:38:07;;;;;;;29.47;21.87;;;;;;;;;;5075665;28;20601;-70
2023/01/23 03:43:17;;;;;;;26.57;20.97;;;;;;;;;;5076025;28;20180;-70
2023/01/23 03:45:43;;;;;;;30.13;22.93;;;;;;;;;;5075474;28;20260;-70
2023/01/23 03:48:09;;;;;;;29.10;21.70;;;;;;;;;;5075405;28;20197;-70
2023/01/23 03:50:35;;;;;;;30.80;22.03;;;;;;;;;;5075468;28;20190;-70
2023/01/23 03:53:01;;;;;;;31.17;21.30;;;;;;;;;;5075325;28;20405;-70
2023/01/23 03:55:27;;;;;;;31.67;22.63;;;;;;;;;;5075413;28;20632;-70
2023/01/23 03:57:53;;;;;;;27.90;20.63;;;;;;;;;;5075406;28;20178;-70
2023/01/23 04:00:19;;;;;;;34.10;23.90;;;;;;;;;;5075045;28;20706;-70
2023/01/23 04:02:45;;;;;;;32.33;23.03;;;;;;;;;;5075456;28;20636;-70
2023/01/23 04:05:11;;;;;;;31.07;22.67;;;;;;;;;;5073862;28;20428;-70
2023/01/23 04:07:37;;;;;;;30.40;22.23;;;;;;;;;;5073801;28;20206;-70
2023/01/23 04:10:03;;;;;;;30.90;23.73;;;;;;;;;;5074265;28;20197;-70
2023/01/23 04:12:29;;;;;;;30.43;22.77;;;;;;;;;;5075807;28;20202;-70
2023/01/23 04:14:55;;;;;;;29.73;21.83;;;;;;;;;;5074299;28;20809;-70
2023/01/23 04:17:21;;;;;;;34.17;22.53;;;;;;;;;;5075087;28;20188;-70
2023/01/23 04:19:47;;;;;;;28.93;21.87;;;;;;;;;;5074975;28;20205;-70
2023/01/23 04:22:13;;;;;;;30.50;23.40;;;;;;;;;;5074676;28;20182;-70
2023/01/23 04:24:39;;;;;;;33.33;22.73;;;;;;;;;;5074566;28;20252;-70
2023/01/23 04:27:05;;;;;;;33.33;23.87;;;;;;;;;;5073517;28;20240;-70
2023/01/23 04:29:31;;;;;;;32.47;21.97;;;;;;;;;;5074684;28;20197;-70
2023/01/23 04:31:57;;;;;;;24.03;15.97;;;;;;;;;;5073452;28;20177;-70
2023/01/23 04:34:23;;;;;;;29.17;20.87;;;;;;;;;;5073234;28;20174;-68
2023/01/23 04:36:49;;;;;;;27.53;21.40;;;;;;;;;;5073088;28;20430;-70
2023/01/23 04:39:15;;;;;;;28.57;18.63;;;;;;;;;;5075398;28;20273;-69
2023/01/23 04:41:41;;;;;;;26.53;19.03;;;;;;;;;;5072910;28;20560;-70
2023/01/23 04:44:19;;;;;;;27.60;20.57;;;;;;;;;;5074500;28;20177;-70
2023/01/23 04:46:45;;;;;;;27.17;21.90;;;;;;;;;;5074439;28;20196;-70
2023/01/23 04:49:11;;;;;;;25.60;18.23;;;;;;;;;;5074182;28;20483;-70
2023/01/23 04:51:37;;;;;;;28.20;20.60;;;;;;;;;;5072783;28;20913;-70
2023/01/23 04:54:03;;;;;;;18.47;14.27;;;;;;;;;;5072880;28;20178;-70
2023/01/23 04:56:29;;;;;;;26.00;19.60;;;;;;;;;;5072738;28;20170;-72
2023/01/23 04:58:55;;;;;;;24.13;17.07;;;;;;;;;;5073958;28;20178;-70
2023/01/23 05:01:22;;;;;;;26.30;19.37;;;;;;;;;;5072897;28;20215;-70
2023/01/23 05:03:51;;;;;;;27.23;21.23;;;;;;;;;;5074102;28;20553;-70
2023/01/23 05:06:18;;;;;;;29.50;22.03;;;;;;;;;;5073995;28;20882;-70
2023/01/23 05:08:44;;;;;;;30.63;21.53;;;;;;;;;;5072437;28;20502;-70
2023/01/23 05:11:10;;;;;;;29.80;21.80;;;;;;;;;;5073767;28;20901;-70
2023/01/23 05:13:36;;;;;;;27.97;20.87;;;;;;;;;;5072480;28;20816;-70
2023/01/23 05:16:03;;;;;;;28.40;21.50;;;;;;;;;;5073974;28;20499;-70
2023/01/23 05:18:28;;;;;;;28.23;21.10;;;;;;;;;;5074289;28;20178;-70
2023/01/23 05:20:54;;;;;;;32.30;20.90;;;;;;;;;;5074045;28;20482;-70
2023/01/23 05:23:20;;;;;;;24.13;19.23;;;;;;;;;;5073869;28;20177;-70
2023/01/23 05:25:46;;;;;;;28.17;21.17;;;;;;;;;;5074333;28;20188;-70
2023/01/23 05:28:13;;;;;;;29.53;22.20;;;;;;;;;;5073281;28;20198;-70
2023/01/23 05:30:38;;;;;;;30.43;22.60;;;;;;;;;;5073471;28;20208;-70
2023/01/23 05:33:04;;;;;;;30.10;22.67;;;;;;;;;;5073832;28;20408;-70
2023/01/23 05:35:30;;;;;;;30.67;23.57;;;;;;;;;;5074929;28;20173;-70
2023/01/23 05:37:56;;;;;;;28.37;21.07;;;;;;;;;;5073239;28;20289;-70
2023/01/23 05:40:23;;;;;;;30.30;21.67;;;;;;;;;;5073429;28;20223;-70
2023/01/23 05:42:49;;;;;;;32.67;24.03;;;;;;;;;;5073047;28;20178;-70
2023/01/23 05:45:15;;;;;;;34.93;24.67;;;;;;;;;;5074488;28;20491;-70
2023/01/23 05:47:41;;;;;;;33.67;23.77;;;;;;;;;;5074378;28;21032;-70
2023/01/23 05:50:08;;;;;;;24.50;16.47;;;;;;;;;;5073306;28;20609;-70
2023/01/23 05:52:35;;;;;;;32.13;22.40;;;;;;;;;;5072850;28;20420;-70
2023/01/23 05:55:01;;;;;;;31.17;21.97;;;;;;;;;;5073599;28;20408;-71
2023/01/23 05:57:27;;;;;;;27.90;18.40;;;;;;;;;;5072162;28;20937;-70
2023/01/23 05:59:52;;;;;;;32.67;22.47;;;;;;;;;;5073336;28;20292;-70
2023/01/23 06:02:18;;;;;;;35.20;22.67;;;;;;;;;;5072200;28;20710;-70
2023/01/23 06:04:46;;;;;;;31.90;22.17;;;;;;;;;;5074040;28;20628;-70
2023/01/23 06:07:13;;;;;;;32.07;20.10;;;;;;;;;;5071926;28;20206;-70
2023/01/23 06:09:39;;;;;;;34.83;24.00;;;;;;;;;;5071736;28;20972;-70
2023/01/23 06:12:05;;;;;;;30.70;20.37;;;;;;;;;;5071931;28;20424;-70
2023/01/23 06:14:31;;;;;;;32.63;20.93;;;;;;;;;;5073609;28;20407;-69
2023/01/23 06:16:57;;;;;;;31.63;21.63;;;;;;;;;;5074163;28;20404;-70
2023/01/23 06:19:23;;;;;;;40.77;26.57;;;;;;;;;;5072562;28;20632;-70
2023/01/23 06:21:49;;;;;;;34.97;23.93;;;;;;;;;;5072146;28;20188;-71
2023/01/23 06:24:15;;;;;;;37.60;25.50;;;;;;;;;;5071977;28;20186;-70
2023/01/23 06:26:41;;;;;;;38.50;23.67;;;;;;;;;;5073103;28;20186;-70
2023/01/23 06:29:07;;;;;;;34.40;19.37;;;;;;;;;;5073318;28;20272;-70
2023/01/23 06:31:33;;;;;;;39.80;25.73;;;;;;;;;;5072949;28;20181;-70
2023/01/23 06:33:59;;;;;;;41.77;26.73;;;;;;;;;;5071692;28;20178;-70
2023/01/23 06:36:26;;;;;;;41.00;25.73;;;;;;;;;;5071653;28;20310;-70
2023/01/23 06:38:52;;;;;;;41.03;25.60;;;;;;;;;;5073142;28;20404;-70
2023/01/23 06:41:18;;;;;;;39.20;25.30;;;;;;;;;;5075093;28;20416;-71
2023/01/23 06:43:44;;;;;;;32.03;20.30;;;;;;;;;;5076476;28;20186;-70
2023/01/23 06:46:10;;;;;;;38.30;23.53;;;;;;;;;;5075309;28;20420;-70
2023/01/23 06:48:37;;;;;;;37.90;20.20;;;;;;;;;;5074893;28;20968;-70
2023/01/23 06:51:03;;;;;;;38.80;25.47;;;;;;;;;;5074849;28;20941;-70
2023/01/23 06:53:30;;;;;;;36.77;25.33;;;;;;;;;;5076174;28;20778;-70
2023/01/23 06:56:02;;;;;;;31.37;20.73;;;;;;;;;;5074964;28;20424;-68
2023/01/23 06:58:28;;;;;;;22.60;14.67;;;;;;;;;;5076386;28;20421;-70
2023/01/23 07:00:54;;;;;;;31.93;21.60;;;;;;;;;;5074564;28;20825;-72
2023/01/23 07:03:20;;;;;;;30.27;22.43;;;;;;;;;;5076577;28;20612;-70
2023/01/23 07:05:46;;;;;;;26.03;19.63;;;;;;;;;;5074638;28;20424;-70
2023/01/23 07:08:12;;;;;;;27.83;21.73;;;;;;;;;;5075933;28;20197;-70
2023/01/23 07:10:38;;;;;;;31.30;22.10;;;;;;;;;;5074915;28;20198;-70
2023/01/23 07:13:05;;;;;;;31.70;22.47;;;;;;;;;;5076215;28;20400;-70
2023/01/23 07:15:31;;;;;;;30.30;20.43;;;;;;;;;;5074667;28;20181;-70
2023/01/23 07:17:57;;;;;;;32.70;21.40;;;;;;;;;;5075935;28;20412;-70
2023/01/23 07:20:26;;;;;;;28.73;18.93;;;;;;;;;;5075840;28;20486;-71
2023/01/23 07:22:57;;;;;;;25.60;16.67;;;;;;;;;;5074941;28;20182;-70
2023/01/23 07:25:23;;;;;;;24.93;15.63;;;;;;;;;;5079626;28;20487;-70
2023/01/23 07:27:49;;;;;;;27.60;20.60;;;;;;;;;;5075476;28;20966;-70
2023/01/23 07:30:16;;;;;;;29.27;20.23;;;;;;;;;;5075223;28;20436;-70
2023/01/23 07:32:42;;;;;;;29.33;21.67;;;;;;;;;;5075389;28;20409;-70
2023/01/23 07:35:08;;;;;;;26.33;17.30;;;;;;;;;;5108664;22;20908;-72
2023/01/23 07:37:34;;;;;;;30.57;21.57;;;;;;;;;;5041459;28;20453;-72
2023/01/23 07:40:00;;;;;;;31.17;22.03;;;;;;;;;;5064863;28;20588;-72
2023/01/23 07:42:26;;;;;;;31.03;21.40;;;;;;;;;;5069524;28;20405;-73
2023/01/23 07:44:52;;;;;;;28.00;20.07;;;;;;;;;;5066939;28;20202;-73
2023/01/23 07:47:18;;;;;;;28.90;19.90;;;;;;;;;;5039078;28;20282;-72
2023/01/23 07:49:45;;;;;;;28.63;20.33;;;;;;;;;;5038744;28;20931;-73
2023/01/23 07:52:11;;;;;;;27.13;17.43;;;;;;;;;;5057039;28;20663;-72
2023/01/23 07:54:37;;;;;;;28.37;20.23;;;;;;;;;;5055921;28;20437;-73
2023/01/23 07:57:03;;;;;;;31.30;20.83;;;;;;;;;;5037939;28;20186;-73
2023/01/23 07:59:29;;;;;;;27.23;18.87;;;;;;;;;;5055580;28;20183;-73
2023/01/23 08:01:55;;;;;;;27.00;18.67;;;;;;;;;;5037965;28;20436;-72
2023/01/23 08:04:21;;;;;;;34.73;19.33;;;;;;;;;;5056226;28;20207;-72
2023/01/23 08:06:46;;;;;;;20.57;14.87;;;;;;;;;;5056118;28;20594;-72
2023/01/23 08:09:12;;;;;;;24.13;16.90;;;;;;;;;;5037250;28;20657;-74
2023/01/23 08:11:39;;;;;;;22.33;16.23;;;;;;;;;;5037471;28;20660;-71
2023/01/23 08:14:05;;;;;;;24.10;14.37;;;;;;;;;;5055445;28;20194;-73
2023/01/23 08:16:31;;;;;;;25.80;17.97;;;;;;;;;;5055280;28;20446;-72
2023/01/23 08:18:57;;;;;;;19.87;12.70;;;;;;;;;;5055227;28;20413;-72
2023/01/23 08:21:24;;;;;;;30.73;19.47;;;;;;;;;;5036976;28;20749;-74
2023/01/23 08:23:50;;;;;;;28.63;18.03;;;;;;;;;;5054603;28;20547;-72
2023/01/23 08:26:16;;;;;;;23.43;15.57;;;;;;;;;;5054625;28;20504;-72
2023/01/23 08:28:43;;;;;;;19.37;13.47;;;;;;;;;;5054532;28;20639;-72
2023/01/23 08:31:10;;;;;;;23.97;16.03;;;;;;;;;;5055015;28;20416;-72
2023/01/23 08:33:37;;;;;;;18.97;12.83;;;;;;;;;;5054497;28;20405;-71
2023/01/23 08:36:03;;;;;;;19.50;13.93;;;;;;;;;;5036341;28;20815;-72
2023/01/23 08:38:30;;;;;;;25.77;16.00;;;;;;;;;;5036737;28;20807;-72
2023/01/23 08:40:58;;;;;;;28.93;18.37;;;;;;;;;;5054396;28;20409;-72
2023/01/23 08:43:23;;;;;;;24.87;15.63;;;;;;;;;;5036473;28;20417;-73
2023/01/23 08:45:50;;;;;;;28.03;18.40;;;;;;;;;;5054098;28;20841;-73
2023/01/23 08:48:16;;;;;;;25.17;16.87;;;;;;;;;;5036748;28;20252;-72
2023/01/23 08:50:43;;;;;;;25.47;17.83;;;;;;;;;;5036854;28;20413;-73
2023/01/23 08:53:09;;;;;;;21.67;14.33;;;;;;;;;;5037311;28;20256;-72
2023/01/23 08:55:36;;;;;;;27.33;19.43;;;;;;;;;;5037566;28;20943;-71
2023/01/23 08:58:02;;;;;;;25.00;15.60;;;;;;;;;;5055412;28;20202;-72
2023/01/23 09:00:29;;;;;;;22.50;16.03;;;;;;;;;;5037357;28;20186;-71
2023/01/23 09:02:55;;;;;;;24.60;17.40;;;;;;;;;;5036519;28;20545;-71
2023/01/23 09:05:21;;;;;;;24.57;17.30;;;;;;;;;;5037311;28;20444;-72
2023/01/23 09:07:47;;;;;;;23.90;16.47;;;;;;;;;;5055075;28;20585;-73
2023/01/23 09:10:13;;;;;;;26.67;16.83;;;;;;;;;;5054995;28;20240;-73
2023/01/23 09:12:41;;;;;;;24.20;18.47;;;;;;;;;;5055536;28;20424;-71
2023/01/23 09:15:07;;;;;;;19.37;13.33;;;;;;;;;;5054965;28;20190;-73
2023/01/23 09:17:33;;;;;;;24.97;16.27;;;;;;;;;;5055062;28;20969;-73
2023/01/23 09:20:00;;;;;;;31.43;20.87;;;;;;;;;;5054684;28;20190;-71
2023/01/23 09:22:26;;;;;;;29.50;17.47;;;;;;;;;;5036793;28;20187;-70
2023/01/23 09:24:52;;;;;;;29.67;19.43;;;;;;;;;;5055772;28;20542;-67
2023/01/23 09:27:18;;;;;;;34.33;19.20;;;;;;;;;;5036193;28;20747;-65
2023/01/23 09:29:44;;;;;;;24.00;14.33;;;;;;;;;;5053993;28;20424;-66
2023/01/23 09:32:10;;;;;;;27.57;18.00;;;;;;;;;;5036041;28;20186;-66
2023/01/23 09:34:36;;;;;;;30.27;18.87;;;;;;;;;;5035659;28;20460;-65
2023/01/23 09:37:02;;;;;;;32.07;21.63;;;;;;;;;;5035557;28;20431;-67
2023/01/23 09:39:29;;;;;;;24.13;15.43;;;;;;;;;;5035840;28;20212;-66
2023/01/23 09:41:55;;;;;;;21.30;14.43;;;;;;;;;;5035528;28;20512;-67
2023/01/23 09:44:25;;;;;;;23.20;15.00;;;;;;;;;;5054108;28;20194;-72
2023/01/23 09:46:52;;;;;;;23.43;16.60;;;;;;;;;;5035572;28;20482;-70
2023/01/23 09:49:27;;;;;;;27.93;19.97;;;;;;;;;;5053447;28;20444;-69
2023/01/23 09:52:04;;;;;;;25.77;17.23;;;;;;;;;;5054028;28;20174;-71
2023/01/23 09:54:34;;;;;;;28.20;19.43;;;;;;;;;;5054030;28;20198;-72
2023/01/23 09:57:02;;;;;;;25.67;18.40;;;;;;;;;;5055010;28;20190;-70
2023/01/23 09:59:35;;;;;;;28.37;19.33;;;;;;;;;;5036785;28;20609;-69
2023/01/23 10:02:01;;;;;;;28.97;21.33;;;;;;;;;;5054851;28;20259;-71
2023/01/23 10:04:28;;;;;;;28.50;18.67;;;;;;;;;;5054504;28;20285;-69
2023/01/23 10:07:19;;;;;;;26.27;17.67;;;;;;;;;;5053992;28;20538;-69
2023/01/23 10:09:44;;;;;;;32.83;22.20;;;;;;;;;;5054206;28;20167;-67
2023/01/23 10:12:13;;;;;;;28.03;20.97;;;;;;;;;;5036369;28;20187;-71
2023/01/23 10:14:49;;;;;;;27.73;18.53;;;;;;;;;;5057806;28;20201;-68
2023/01/23 10:17:21;;;;;;;29.80;20.70;;;;;;;;;;5058062;28;20644;-69
2023/01/23 10:19:56;;;;;;;31.33;21.57;;;;;;;;;;5058677;28;20475;-69
2023/01/23 10:22:35;;;;;;;24.77;17.23;;;;;;;;;;5058439;28;20178;-69
2023/01/23 10:25:02;;;;;;;26.33;15.83;;;;;;;;;;5057936;28;20194;-69
2023/01/23 10:27:43;;;;;;;20.70;13.00;;;;;;;;;;5058785;28;20225;-69
2023/01/23 10:30:18;;;;;;;22.70;16.77;;;;;;;;;;5041466;28;20416;-69
2023/01/23 10:33:01;;;;;;;21.63;15.10;;;;;;;;;;5040208;28;20235;-69
2023/01/23 10:35:40;;;;;;;19.63;13.73;;;;;;;;;;5039481;28;20210;-68
2023/01/23 10:38:26;;;;;;;19.37;14.53;;;;;;;;;;5057625;28;20183;-69
2023/01/23 10:43:37;;;;;;;18.20;11.87;;;;;;;;;;5057927;28;20643;-68
2023/01/23 10:46:14;;;;;;;15.47;12.03;;;;;;;;;;5057350;28;20186;-69
2023/01/23 10:48:41;;;;;;;17.30;12.53;;;;;;;;;;5039680;28;20205;-69
2023/01/23 10:51:26;;;;;;;19.27;15.37;;;;;;;;;;5057213;28;20205;-69
2023/01/23 10:54:02;;;;;;;20.70;13.23;;;;;;;;;;5057138;28;20179;-69
2023/01/23 10:56:28;;;;;;;17.40;13.73;;;;;;;;;;5057998;28;20546;-68
2023/01/23 10:58:59;;;;;;;17.73;13.20;;;;;;;;;;5057383;28;20186;-68
2023/01/23 11:01:27;;;;;;;13.40;10.33;;;;;;;;;;5057375;28;20183;-68
2023/01/23 11:03:53;;;;;;;17.73;12.67;;;;;;;;;;5039212;28;20192;-67
2023/01/23 11:06:24;;;;;;;16.97;12.57;;;;;;;;;;5039287;28;20193;-69
2023/01/23 11:08:59;;;;;;;14.50;11.17;;;;;;;;;;5057538;28;20633;-68
2023/01/23 11:11:26;;;;;;;14.10;10.70;;;;;;;;;;5039472;28;20228;-69
2023/01/23 11:14:05;;;;;;;13.20;10.97;;;;;;;;;;5056762;28;20197;-69
2023/01/23 11:16:32;;;;;;;17.33;13.73;;;;;;;;;;5057054;28;20175;-70
2023/01/23 11:19:07;;;;;;;16.13;12.33;;;;;;;;;;5038868;28;20182;-69
2023/01/23 11:21:37;;;;;;;13.07;9.23;;;;;;;;;;5056714;28;20209;-69
2023/01/23 11:24:21;;;;;;;17.73;13.30;;;;;;;;;;5057502;28;20424;-68
2023/01/23 11:26:57;;;;;;;16.80;13.80;;;;;;;;;;5056756;28;20257;-68
2023/01/23 11:29:25;;;;;;;17.10;13.17;;;;;;;;;;5039078;28;20166;-68
2023/01/23 11:32:00;;;;;;;16.17;13.10;;;;;;;;;;5057127;28;20186;-68
2023/01/23 11:34:34;;;;;;;15.20;13.00;;;;;;;;;;5039416;28;20228;-68
2023/01/23 11:37:20;;;;;;;20.77;13.63;;;;;;;;;;5057340;28;20163;-69
2023/01/23 11:39:56;;;;;;;13.73;10.80;;;;;;;;;;5057552;28;20188;-69
2023/01/23 11:42:24;;;;;;;13.53;10.83;;;;;;;;;;5057394;28;20163;-68
2023/01/23 11:44:50;;;;;;;11.70;8.90;;;;;;;;;;5038826;28;20585;-69
2023/01/23 11:47:25;;;;;;;13.13;10.73;;;;;;;;;;5039214;28;20207;-69
2023/01/23 11:49:50;;;;;;;15.10;11.77;;;;;;;;;;5057439;28;20174;-69
2023/01/23 11:52:37;;;;;;;19.27;12.10;;;;;;;;;;5038907;28;20538;-69
2023/01/23 11:55:21;;;;;;;12.33;9.57;;;;;;;;;;5042975;28;20214;-69
2023/01/23 11:58:05;;;;;;;13.60;10.70;;;;;;;;;;5056819;28;20174;-69
2023/01/23 12:00:41;;;;;;;12.87;10.63;;;;;;;;;;5039357;28;20190;-68
2023/01/23 12:03:20;;;;;;;12.27;10.40;;;;;;;;;;5038352;28;20188;-68
2023/01/23 12:06:04;;;;;;;9.03;7.50;;;;;;;;;;5056636;28;20222;-69
2023/01/23 12:08:49;;;;;;;11.47;7.90;;;;;;;;;;5056610;28;20209;-70
2023/01/23 12:11:16;;;;;;;14.77;10.17;;;;;;;;;;5056229;28;20198;-71
2023/01/23 12:13:48;;;;;;;11.93;9.67;;;;;;;;;;5056529;28;20548;-69
2023/01/23 12:16:20;;;;;;;12.37;9.33;;;;;;;;;;5037794;28;20206;-71
2023/01/23 12:18:55;;;;;;;12.00;10.30;;;;;;;;;;5056279;28;20187;-69
2023/01/23 12:21:29;;;;;;;10.53;9.20;;;;;;;;;;5055690;28;20236;-69
2023/01/23 12:24:20;;;;;;;11.77;9.30;;;;;;;;;;5055535;28;20171;-69
2023/01/23 12:27:05;;;;;;;9.90;7.50;;;;;;;;;;5037741;28;20201;-70
2023/01/23 12:29:38;;;;;;;10.13;7.40;;;;;;;;;;5037680;28;20182;-68
2023/01/23 12:32:21;;;;;;;8.80;7.90;;;;;;;;;;5056934;28;20587;-70
2023/01/23 12:35:06;;;;;;;7.47;5.77;;;;;;;;;;5056450;28;20624;-70
2023/01/23 12:37:48;;;;;;;11.00;6.70;;;;;;;;;;5054744;28;20178;-69
2023/01/23 12:40:22;;;;;;;7.80;6.57;;;;;;;;;;5038685;28;20167;-70
2023/01/23 12:42:52;;;;;;;9.77;6.40;;;;;;;;;;5038521;28;20246;-69
2023/01/23 12:45:22;;;;;;;8.80;6.53;;;;;;;;;;5038241;28;20206;-68
2023/01/23 12:47:54;;;;;;;8.23;7.27;;;;;;;;;;5038479;28;20722;-68
2023/01/23 12:50:23;;;;;;;8.03;6.33;;;;;;;;;;5040464;28;20188;-70
2023/01/23 12:52:57;;;;;;;7.80;6.50;;;;;;;;;;5062777;28;20568;-68
2023/01/23 12:55:29;;;;;;;7.43;6.63;;;;;;;;;;5045529;28;20257;-69
2023/01/23 12:57:56;;;;;;;9.67;6.87;;;;;;;;;;5060763;28;20178;-69
2023/01/23 13:00:28;;;;;;;8.93;7.03;;;;;;;;;;5055956;28;20186;-69
2023/01/23 13:03:07;;;;;;;8.77;7.37;;;;;;;;;;5037659;28;20178;-70
2023/01/23 13:05:38;;;;;;;8.53;7.53;;;;;;;;;;5038207;28;20239;-70
2023/01/23 13:08:14;;;;;;;12.33;8.63;;;;;;;;;;5037466;28;20277;-68
2023/01/23 13:13:41;;;;;;;11.40;7.70;;;;;;;;;;5055384;28;20182;-69
2023/01/23 13:16:12;;;;;;;11.53;9.00;;;;;;;;;;5055122;28;20181;-69
2023/01/23 13:27:24;;;;;;;16.00;13.37;;;;;;;;;;5054702;28;20702;-68
2023/01/23 13:29:50;;;;;;;14.03;10.80;;;;;;;;;;5036425;28;20182;-69
2023/01/23 13:32:20;;;;;;;18.73;13.43;;;;;;;;;;5037203;28;20300;-69
2023/01/23 13:34:46;;;;;;;14.83;12.57;;;;;;;;;;5036409;28;20218;-69
2023/01/23 13:37:33;;;;;;;16.97;13.20;;;;;;;;;;5054797;28;20186;-70
2023/01/23 13:40:11;;;;;;;16.47;13.77;;;;;;;;;;5037710;28;20190;-69
2023/01/23 13:42:37;;;;;;;19.67;13.63;;;;;;;;;;5054819;28;20261;-69
2023/01/23 13:45:15;;;;;;;18.57;14.47;;;;;;;;;;5055305;28;20225;-69
2023/01/23 13:50:39;;;;;;;16.47;13.67;;;;;;;;;;5058911;28;20170;-70
2023/01/23 13:58:50;;;;;;;16.17;12.97;;;;;;;;;;5059253;28;20174;-69
2023/01/23 14:06:57;;;;;;;17.67;13.27;;;;;;;;;;5058953;28;20589;-69
2023/01/23 14:09:25;;;;;;;17.07;14.30;;;;;;;;;;5058083;28;20182;-70
2023/01/23 14:12:01;;;;;;;16.57;12.80;;;;;;;;;;5058494;28;20182;-69
2023/01/23 14:17:19;;;;;;;15.27;13.10;;;;;;;;;;5059157;28;20201;-70
2023/01/23 14:19:56;;;;;;;15.77;12.80;;;;;;;;;;5040712;28;20221;-69
2023/01/23 14:22:23;;;;;;;19.17;13.83;;;;;;;;;;5040430;28;20272;-69
2023/01/23 14:24:50;;;;;;;16.73;12.40;;;;;;;;;;5058224;28;20198;-69
2023/01/23 14:27:36;;;;;;;15.07;12.63;;;;;;;;;;5040126;28;20251;-69
2023/01/23 14:30:04;;;;;;;17.73;12.47;;;;;;;;;;5040138;28;20200;-70
2023/01/23 14:32:31;;;;;;;19.23;14.67;;;;;;;;;;5058921;28;20254;-70
2023/01/23 14:34:57;;;;;;;16.37;13.87;;;;;;;;;;5040270;28;20218;-68
2023/01/23 14:37:24;;;;;;;17.67;14.43;;;;;;;;;;5058358;28;20182;-69
2023/01/23 14:39:51;;;;;;;15.00;11.37;;;;;;;;;;5057849;28;20590;-70
2023/01/23 14:42:25;;;;;;;19.07;15.73;;;;;;;;;;5040414;28;20232;-69
2023/01/23 14:44:51;;;;;;;19.20;16.23;;;;;;;;;;5039496;28;20202;-69
2023/01/23 14:47:21;;;;;;;20.03;16.37;;;;;;;;;;5057625;28;20198;-69
2023/01/23 14:49:47;;;;;;;21.27;17.70;;;;;;;;;;5058318;28;20178;-68
2023/01/23 14:52:24;;;;;;;21.13;16.00;;;;;;;;;;5057534;28;20274;-69
2023/01/23 14:54:51;;;;;;;17.63;13.77;;;;;;;;;;5058079;28;20584;-70
2023/01/23 14:57:18;;;;;;;22.47;17.37;;;;;;;;;;5077284;22;21272;-69
2023/01/23 14:59:45;;;;;;;20.07;17.60;;;;;;;;;;5076673;28;20163;-68
2023/01/23 15:02:41;;;;;;;20.27;17.20;;;;;;;;;;5077987;28;20177;-69
2023/01/23 15:05:22;;;;;;;23.73;18.07;;;;;;;;;;5063674;28;20212;-71